sensor_id;sensor_type;location;lat;lon;timestamp;pressure;altitude;pressure_sealevel;temperature;humidity
5755;BME280;2902;42.130;24.732;2023-08-17T00:01:53;99408.88;;;26.05;56.97
5755;BME280;2902;42.130;24.732;2023-08-17T00:04:21;99413.03;;;26.03;57.07
5755;BME280;2902;42.130;24.732;2023-08-17T00:06:47;99415.84;;;25.98;57.17
5755;BME280;2902;42.130;24.732;2023-08-17T00:09:14;99417.00;;;25.92;56.76
5755;BME280;2902;42.130;24.732;2023-08-17T00:11:41;99412.16;;;25.89;56.65
5755;BME280;2902;42.130;24.732;2023-08-17T00:14:07;99418.19;;;25.86;57.71
5755;BME280;2902;42.130;24.732;2023-08-17T00:16:35;99413.94;;;25.80;58.08
5755;BME280;2902;42.130;24.732;2023-08-17T00:19:02;99414.97;;;25.84;57.56
5755;BME280;2902;42.130;24.732;2023-08-17T00:21:30;99419.19;;;25.90;57.88
5755;BME280;2902;42.130;24.732;2023-08-17T00:23:56;99416.00;;;25.88;58.00
5755;BME280;2902;42.130;24.732;2023-08-17T00:26:23;99421.06;;;25.94;57.35
5755;BME280;2902;42.130;24.732;2023-08-17T00:28:50;99419.66;;;25.97;56.61
5755;BME280;2902;42.130;24.732;2023-08-17T00:31:17;99421.72;;;25.86;57.43
5755;BME280;2902;42.130;24.732;2023-08-17T00:33:44;99421.44;;;25.88;57.08
5755;BME280;2902;42.130;24.732;2023-08-17T00:36:10;99416.00;;;25.88;57.25
5755;BME280;2902;42.130;24.732;2023-08-17T00:38:38;99421.88;;;25.95;57.42
5755;BME280;2902;42.130;24.732;2023-08-17T00:41:05;99417.97;;;26.01;56.58
5755;BME280;2902;42.130;24.732;2023-08-17T00:43:32;99423.19;;;25.97;56.65
5755;BME280;2902;42.130;24.732;2023-08-17T00:45:58;99419.38;;;25.98;56.71
5755;BME280;2902;42.130;24.732;2023-08-17T00:48:26;99426.13;;;26.01;57.20
5755;BME280;2902;42.130;24.732;2023-08-17T00:50:55;99424.53;;;26.00;55.78
5755;BME280;2902;42.130;24.732;2023-08-17T00:53:23;99428.94;;;25.96;56.34
5755;BME280;2902;42.130;24.732;2023-08-17T00:55:54;99427.47;;;25.85;55.82
5755;BME280;2902;42.130;24.732;2023-08-17T00:58:21;99426.44;;;25.81;56.27
5755;BME280;2902;42.130;24.732;2023-08-17T01:00:47;99433.06;;;25.75;56.39
5755;BME280;2902;42.130;24.732;2023-08-17T01:03:15;99434.06;;;25.79;56.85
5755;BME280;2902;42.130;24.732;2023-08-17T01:05:43;99428.88;;;25.82;57.00
5755;BME280;2902;42.130;24.732;2023-08-17T01:08:10;99430.47;;;25.83;56.78
5755;BME280;2902;42.130;24.732;2023-08-17T01:10:41;99427.47;;;25.85;55.85
5755;BME280;2902;42.130;24.732;2023-08-17T01:13:16;99433.78;;;25.80;55.84
5755;BME280;2902;42.130;24.732;2023-08-17T01:15:49;99427.09;;;25.73;56.91
5755;BME280;2902;42.130;24.732;2023-08-17T01:18:20;99428.59;;;25.65;57.61
5755;BME280;2902;42.130;24.732;2023-08-17T01:20:49;99416.72;;;25.75;57.58
5755;BME280;2902;42.130;24.732;2023-08-17T01:23:17;99421.81;;;25.81;57.06
5755;BME280;2902;42.130;24.732;2023-08-17T01:25:44;99423.91;;;25.84;56.60
5755;BME280;2902;42.130;24.732;2023-08-17T01:28:11;99418.28;;;25.81;56.84
5755;BME280;2902;42.130;24.732;2023-08-17T01:30:42;99420.78;;;25.77;56.24
5755;BME280;2902;42.130;24.732;2023-08-17T01:33:14;99416.81;;;25.70;56.69
5755;BME280;2902;42.130;24.732;2023-08-17T01:35:47;99420.94;;;25.67;57.07
5755;BME280;2902;42.130;24.732;2023-08-17T01:38:21;99419.16;;;25.58;57.35
5755;BME280;2902;42.130;24.732;2023-08-17T01:40:49;99418.81;;;25.46;58.61
5755;BME280;2902;42.130;24.732;2023-08-17T01:43:19;99420.44;;;25.47;58.89
5755;BME280;2902;42.130;24.732;2023-08-17T01:45:47;99422.06;;;25.48;58.51
5755;BME280;2902;42.130;24.732;2023-08-17T01:48:13;99427.03;;;25.41;58.97
5755;BME280;2902;42.130;24.732;2023-08-17T01:50:40;99417.59;;;25.15;59.24
5755;BME280;2902;42.130;24.732;2023-08-17T01:53:07;99421.06;;;24.96;59.65
5755;BME280;2902;42.130;24.732;2023-08-17T01:55:35;99420.31;;;24.72;60.44
5755;BME280;2902;42.130;24.732;2023-08-17T01:58:01;99416.13;;;24.56;62.58
5755;BME280;2902;42.130;24.732;2023-08-17T02:00:28;99417.41;;;24.64;62.10
5755;BME280;2902;42.130;24.732;2023-08-17T02:02:55;99421.38;;;24.71;61.82
5755;BME280;2902;42.130;24.732;2023-08-17T02:05:22;99414.75;;;24.82;61.44
5755;BME280;2902;42.130;24.732;2023-08-17T02:07:48;99415.44;;;24.93;61.48
5755;BME280;2902;42.130;24.732;2023-08-17T02:10:15;99404.56;;;24.93;62.04
5755;BME280;2902;42.130;24.732;2023-08-17T02:12:43;99410.81;;;24.93;61.79
5755;BME280;2902;42.130;24.732;2023-08-17T02:15:10;99415.00;;;25.04;61.67
5755;BME280;2902;42.130;24.732;2023-08-17T02:17:36;99411.19;;;25.06;61.99
5755;BME280;2902;42.130;24.732;2023-08-17T02:20:04;99406.81;;;25.10;61.73
5755;BME280;2902;42.130;24.732;2023-08-17T02:22:31;99395.47;;;25.02;61.52
5755;BME280;2902;42.130;24.732;2023-08-17T02:24:58;99406.16;;;25.18;61.47
5755;BME280;2902;42.130;24.732;2023-08-17T02:27:24;99407.97;;;25.22;61.41
5755;BME280;2902;42.130;24.732;2023-08-17T02:29:52;99404.97;;;25.24;61.72
5755;BME280;2902;42.130;24.732;2023-08-17T02:32:19;99413.31;;;25.32;61.55
5755;BME280;2902;42.130;24.732;2023-08-17T02:34:46;99412.41;;;25.37;61.27
5755;BME280;2902;42.130;24.732;2023-08-17T02:37:12;99409.19;;;25.35;61.72
5755;BME280;2902;42.130;24.732;2023-08-17T02:39:39;99410.72;;;25.41;61.25
5755;BME280;2902;42.130;24.732;2023-08-17T02:42:07;99404.50;;;25.40;61.46
5755;BME280;2902;42.130;24.732;2023-08-17T02:44:33;99404.78;;;25.39;61.49
5755;BME280;2902;42.130;24.732;2023-08-17T02:47:01;99406.03;;;25.28;61.65
5755;BME280;2902;42.130;24.732;2023-08-17T02:49:28;99400.84;;;25.26;61.36
5755;BME280;2902;42.130;24.732;2023-08-17T02:51:55;99404.50;;;25.17;62.10
5755;BME280;2902;42.130;24.732;2023-08-17T02:54:22;99405.75;;;25.06;62.36
5755;BME280;2902;42.130;24.732;2023-08-17T02:56:48;99407.56;;;24.91;62.85
5755;BME280;2902;42.130;24.732;2023-08-17T02:59:16;99407.22;;;24.74;63.83
5755;BME280;2902;42.130;24.732;2023-08-17T03:01:43;99402.00;;;24.54;64.21
5755;BME280;2902;42.130;24.732;2023-08-17T03:04:11;99403.97;;;24.49;64.42
5755;BME280;2902;42.130;24.732;2023-08-17T03:06:38;99401.53;;;24.47;64.71
5755;BME280;2902;42.130;24.732;2023-08-17T03:09:05;99397.75;;;24.48;64.58
5755;BME280;2902;42.130;24.732;2023-08-17T03:11:32;99408.00;;;24.51;64.11
5755;BME280;2902;42.130;24.732;2023-08-17T03:13:58;99410.69;;;24.56;62.68
5755;BME280;2902;42.130;24.732;2023-08-17T03:16:26;99410.69;;;24.56;61.64
5755;BME280;2902;42.130;24.732;2023-08-17T03:18:53;99408.00;;;24.51;61.35
5755;BME280;2902;42.130;24.732;2023-08-17T03:21:21;99414.13;;;24.38;61.56
5755;BME280;2902;42.130;24.732;2023-08-17T03:23:49;99413.69;;;24.26;61.11
5755;BME280;2902;42.130;24.732;2023-08-17T03:26:15;99410.06;;;24.12;61.10
5755;BME280;2902;42.130;24.732;2023-08-17T03:28:42;99405.75;;;24.06;61.31
5755;BME280;2902;42.130;24.732;2023-08-17T03:31:09;99411.19;;;24.06;61.23
5755;BME280;2902;42.130;24.732;2023-08-17T03:33:35;99410.66;;;24.04;60.98
5755;BME280;2902;42.130;24.732;2023-08-17T03:36:02;99415.00;;;24.05;60.72
5755;BME280;2902;42.130;24.732;2023-08-17T03:38:31;99412.31;;;24.00;61.02
5755;BME280;2902;42.130;24.732;2023-08-17T03:40:57;99412.41;;;23.90;61.39
5755;BME280;2902;42.130;24.732;2023-08-17T03:43:24;99422.75;;;23.83;61.50
5755;BME280;2902;42.130;24.732;2023-08-17T03:45:52;99423.31;;;23.80;61.85
5755;BME280;2902;42.130;24.732;2023-08-17T03:48:19;99409.84;;;23.70;61.46
5755;BME280;2902;42.130;24.732;2023-08-17T03:50:46;99424.31;;;23.94;61.53
5755;BME280;2902;42.130;24.732;2023-08-17T03:53:13;99424.47;;;24.08;60.73
5755;BME280;2902;42.130;24.732;2023-08-17T03:55:45;99431.31;;;24.29;60.75
5755;BME280;2902;42.130;24.732;2023-08-17T03:58:12;99424.22;;;24.61;60.88
5755;BME280;2902;42.130;24.732;2023-08-17T04:00:39;99431.38;;;24.99;57.77
5755;BME280;2902;42.130;24.732;2023-08-17T04:03:06;99432.03;;;25.34;57.03
5755;BME280;2902;42.130;24.732;2023-08-17T04:05:32;99420.09;;;25.67;56.36
5755;BME280;2902;42.130;24.732;2023-08-17T04:08:00;99435.88;;;26.20;54.94
5755;BME280;2902;42.130;24.732;2023-08-17T04:10:28;99439.00;;;26.73;53.56
5755;BME280;2902;42.130;24.732;2023-08-17T04:12:56;99445.56;;;27.26;51.46
5755;BME280;2902;42.130;24.732;2023-08-17T04:15:23;99447.34;;;27.79;49.14
5755;BME280;2902;42.130;24.732;2023-08-17T04:17:49;99454.22;;;28.21;46.95
5755;BME280;2902;42.130;24.732;2023-08-17T04:20:16;99450.22;;;28.71;45.31
5755;BME280;2902;42.130;24.732;2023-08-17T04:22:44;99462.00;;;29.27;44.22
5755;BME280;2902;42.130;24.732;2023-08-17T04:25:10;99452.56;;;29.76;41.93
5755;BME280;2902;42.130;24.732;2023-08-17T04:27:37;99454.34;;;30.15;40.40
5755;BME280;2902;42.130;24.732;2023-08-17T04:30:07;99453.78;;;30.55;40.63
5755;BME280;2902;42.130;24.732;2023-08-17T04:32:33;99467.78;;;31.08;38.86
5755;BME280;2902;42.130;24.732;2023-08-17T04:35:00;99463.03;;;31.46;37.96
5755;BME280;2902;42.130;24.732;2023-08-17T04:37:27;99460.91;;;31.72;37.78
5755;BME280;2902;42.130;24.732;2023-08-17T04:39:54;99457.00;;;31.73;37.39
5755;BME280;2902;42.130;24.732;2023-08-17T04:42:20;99460.38;;;31.99;37.28
5755;BME280;2902;42.130;24.732;2023-08-17T04:44:47;99469.50;;;32.24;37.31
5755;BME280;2902;42.130;24.732;2023-08-17T04:47:15;99463.66;;;32.46;36.56
5755;BME280;2902;42.130;24.732;2023-08-17T04:49:42;99470.41;;;32.36;36.96
5755;BME280;2902;42.130;24.732;2023-08-17T04:52:09;99466.31;;;32.54;36.58
5755;BME280;2902;42.130;24.732;2023-08-17T04:54:35;99471.16;;;32.69;36.49
5755;BME280;2902;42.130;24.732;2023-08-17T04:57:02;99468.63;;;32.64;37.06
5755;BME280;2902;42.130;24.732;2023-08-17T04:59:30;99470.28;;;32.89;36.18
5755;BME280;2902;42.130;24.732;2023-08-17T05:01:57;99468.22;;;32.86;36.05
5755;BME280;2902;42.130;24.732;2023-08-17T05:04:25;99467.91;;;32.55;37.08
5755;BME280;2902;42.130;24.732;2023-08-17T05:06:52;99453.97;;;32.72;36.34
5755;BME280;2902;42.130;24.732;2023-08-17T05:09:18;99464.41;;;32.67;36.48
5755;BME280;2902;42.130;24.732;2023-08-17T05:11:46;99450.88;;;32.62;36.77
5755;BME280;2902;42.130;24.732;2023-08-17T05:14:12;99476.56;;;32.66;36.83
5755;BME280;2902;42.130;24.732;2023-08-17T05:16:39;99476.19;;;32.67;36.84
5755;BME280;2902;42.130;24.732;2023-08-17T05:19:06;99466.56;;;32.61;37.30
5755;BME280;2902;42.130;24.732;2023-08-17T05:21:34;99467.72;;;32.72;37.42
5755;BME280;2902;42.130;24.732;2023-08-17T05:24:01;99460.38;;;32.64;37.37
5755;BME280;2902;42.130;24.732;2023-08-17T05:26:28;99467.94;;;32.79;36.82
5755;BME280;2902;42.130;24.732;2023-08-17T05:28:54;99464.22;;;32.84;36.25
5755;BME280;2902;42.130;24.732;2023-08-17T05:31:21;99466.06;;;33.04;36.41
5755;BME280;2902;42.130;24.732;2023-08-17T05:33:48;99469.16;;;33.39;35.87
5755;BME280;2902;42.130;24.732;2023-08-17T05:36:14;99471.72;;;33.83;34.98
5755;BME280;2902;42.130;24.732;2023-08-17T05:38:42;99459.19;;;33.86;34.89
5755;BME280;2902;42.130;24.732;2023-08-17T05:41:09;99470.06;;;34.22;33.92
5755;BME280;2902;42.130;24.732;2023-08-17T05:43:36;99462.22;;;34.24;34.21
5755;BME280;2902;42.130;24.732;2023-08-17T05:46:02;99465.41;;;34.10;34.34
5755;BME280;2902;42.130;24.732;2023-08-17T05:48:29;99457.50;;;34.36;34.17
5755;BME280;2902;42.130;24.732;2023-08-17T05:50:56;99449.97;;;34.49;33.34
5755;BME280;2902;42.130;24.732;2023-08-17T05:53:23;99464.06;;;34.32;34.64
5755;BME280;2902;42.130;24.732;2023-08-17T05:55:51;99465.34;;;34.34;33.48
5755;BME280;2902;42.130;24.732;2023-08-17T05:58:18;99456.72;;;34.51;33.01
5755;BME280;2902;42.130;24.732;2023-08-17T06:00:44;99459.75;;;34.62;32.90
5755;BME280;2902;42.130;24.732;2023-08-17T06:03:11;99447.31;;;34.25;34.15
5755;BME280;2902;42.130;24.732;2023-08-17T06:05:39;99456.63;;;34.20;34.64
5755;BME280;2902;42.130;24.732;2023-08-17T06:08:06;99452.31;;;34.35;33.85
5755;BME280;2902;42.130;24.732;2023-08-17T06:10:33;99458.94;;;34.46;33.72
5755;BME280;2902;42.130;24.732;2023-08-17T06:13:01;99456.38;;;34.68;33.21
5755;BME280;2902;42.130;24.732;2023-08-17T06:15:27;99448.53;;;34.70;33.31
5755;BME280;2902;42.130;24.732;2023-08-17T06:17:54;99452.94;;;34.87;33.83
5755;BME280;2902;42.130;24.732;2023-08-17T06:20:21;99461.56;;;35.01;32.49
5755;BME280;2902;42.130;24.732;2023-08-17T06:22:48;99450.16;;;34.87;33.75
5755;BME280;2902;42.130;24.732;2023-08-17T06:25:15;99445.72;;;34.98;33.15
5755;BME280;2902;42.130;24.732;2023-08-17T06:27:42;99451.28;;;35.17;32.51
5755;BME280;2902;42.130;24.732;2023-08-17T06:30:11;99450.97;;;35.03;33.51
5755;BME280;2902;42.130;24.732;2023-08-17T06:32:38;99449.81;;;34.88;33.63
5755;BME280;2902;42.130;24.732;2023-08-17T06:35:06;99458.25;;;34.95;32.75
5755;BME280;2902;42.130;24.732;2023-08-17T06:37:33;99459.16;;;34.99;32.44
5755;BME280;2902;42.130;24.732;2023-08-17T06:40:00;99455.03;;;35.09;32.87
5755;BME280;2902;42.130;24.732;2023-08-17T06:42:27;99459.16;;;35.15;32.73
5755;BME280;2902;42.130;24.732;2023-08-17T06:44:53;99463.78;;;35.11;32.70
5755;BME280;2902;42.130;24.732;2023-08-17T06:47:22;99461.97;;;35.18;33.26
5755;BME280;2902;42.130;24.732;2023-08-17T06:49:48;99449.84;;;35.38;32.32
5755;BME280;2902;42.130;24.732;2023-08-17T06:52:15;99453.56;;;35.46;32.26
5755;BME280;2902;42.130;24.732;2023-08-17T06:54:42;99454.44;;;35.50;31.96
5755;BME280;2902;42.130;24.732;2023-08-17T06:57:09;99457.09;;;35.62;31.60
5755;BME280;2902;42.130;24.732;2023-08-17T06:59:35;99446.56;;;35.33;32.25
5755;BME280;2902;42.130;24.732;2023-08-17T07:02:02;99447.97;;;35.42;32.62
5755;BME280;2902;42.130;24.732;2023-08-17T07:04:30;99449.00;;;35.53;31.38
5755;BME280;2902;42.130;24.732;2023-08-17T07:06:57;99448.91;;;35.50;31.73
5755;BME280;2902;42.130;24.732;2023-08-17T07:09:24;99430.78;;;35.33;31.39
5755;BME280;2902;42.130;24.732;2023-08-17T07:11:50;99421.28;;;35.50;31.38
5755;BME280;2902;42.130;24.732;2023-08-17T07:14:17;99449.56;;;35.78;31.76
5755;BME280;2902;42.130;24.732;2023-08-17T07:16:44;99449.00;;;35.88;30.98
5755;BME280;2902;42.130;24.732;2023-08-17T07:19:10;99451.47;;;35.93;30.66
5755;BME280;2902;42.130;24.732;2023-08-17T07:21:40;99446.25;;;35.72;30.60
5755;BME280;2902;42.130;24.732;2023-08-17T07:24:13;99437.94;;;35.88;30.04
5755;BME280;2902;42.130;24.732;2023-08-17T07:26:41;99442.84;;;35.79;30.49
5755;BME280;2902;42.130;24.732;2023-08-17T07:29:08;99438.31;;;35.71;30.65
5755;BME280;2902;42.130;24.732;2023-08-17T07:31:35;99445.34;;;36.03;30.39
5755;BME280;2902;42.130;24.732;2023-08-17T07:34:03;99440.69;;;36.26;30.43
5755;BME280;2902;42.130;24.732;2023-08-17T07:36:32;99451.59;;;36.38;29.46
5755;BME280;2902;42.130;24.732;2023-08-17T07:39:00;99455.63;;;36.44;30.09
5755;BME280;2902;42.130;24.732;2023-08-17T07:41:28;99454.84;;;36.43;29.36
5755;BME280;2902;42.130;24.732;2023-08-17T07:43:55;99453.66;;;36.22;29.72
5755;BME280;2902;42.130;24.732;2023-08-17T07:46:22;99445.91;;;36.12;30.29
5755;BME280;2902;42.130;24.732;2023-08-17T07:48:49;99448.75;;;36.15;30.09
5755;BME280;2902;42.130;24.732;2023-08-17T07:51:16;99441.59;;;36.33;30.59
5755;BME280;2902;42.130;24.732;2023-08-17T07:53:42;99442.28;;;36.49;29.33
5755;BME280;2902;42.130;24.732;2023-08-17T07:56:10;99442.91;;;36.39;28.14
5755;BME280;2902;42.130;24.732;2023-08-17T07:58:37;99442.25;;;36.46;27.98
5755;BME280;2902;42.130;24.732;2023-08-17T08:01:04;99440.28;;;36.69;27.61
5755;BME280;2902;42.130;24.732;2023-08-17T08:03:31;99440.34;;;36.95;27.73
5755;BME280;2902;42.130;24.732;2023-08-17T08:05:58;99442.28;;;37.17;28.70
5755;BME280;2902;42.130;24.732;2023-08-17T08:08:24;99435.78;;;37.32;28.33
5755;BME280;2902;42.130;24.732;2023-08-17T08:10:53;99440.72;;;37.46;28.11
5755;BME280;2902;42.130;24.732;2023-08-17T08:13:21;99432.38;;;37.42;27.72
5755;BME280;2902;42.130;24.732;2023-08-17T08:15:47;99437.72;;;37.58;27.58
5755;BME280;2902;42.130;24.732;2023-08-17T08:18:14;99436.25;;;37.64;27.50
5755;BME280;2902;42.130;24.732;2023-08-17T08:20:41;99436.13;;;37.57;27.47
5755;BME280;2902;42.130;24.732;2023-08-17T08:23:08;99434.09;;;37.54;26.48
5755;BME280;2902;42.130;24.732;2023-08-17T08:25:34;99431.00;;;37.29;27.18
5755;BME280;2902;42.130;24.732;2023-08-17T08:28:01;99433.44;;;36.63;27.45
5755;BME280;2902;42.130;24.732;2023-08-17T08:30:29;99424.31;;;36.62;27.61
5755;BME280;2902;42.130;24.732;2023-08-17T08:32:56;99425.53;;;36.84;27.67
5755;BME280;2902;42.130;24.732;2023-08-17T08:35:24;99425.53;;;37.10;27.40
5755;BME280;2902;42.130;24.732;2023-08-17T08:37:51;99423.91;;;37.32;27.13
5755;BME280;2902;42.130;24.732;2023-08-17T08:40:17;99430.34;;;37.39;26.40
5755;BME280;2902;42.130;24.732;2023-08-17T08:42:45;99431.09;;;37.36;26.82
5755;BME280;2902;42.130;24.732;2023-08-17T08:45:12;99411.63;;;37.06;27.75
5755;BME280;2902;42.130;24.732;2023-08-17T08:47:40;99418.72;;;37.04;28.09
5755;BME280;2902;42.130;24.732;2023-08-17T08:50:09;99412.22;;;36.93;27.69
5755;BME280;2902;42.130;24.732;2023-08-17T08:52:42;99398.53;;;37.30;27.57
5755;BME280;2902;42.130;24.732;2023-08-17T08:55:12;99410.31;;;37.23;27.36
5755;BME280;2902;42.130;24.732;2023-08-17T08:57:42;99399.41;;;36.85;27.93
5755;BME280;2902;42.130;24.732;2023-08-17T09:00:11;99396.31;;;36.90;28.10
5755;BME280;2902;42.130;24.732;2023-08-17T09:02:39;99399.22;;;37.23;27.33
5755;BME280;2902;42.130;24.732;2023-08-17T09:05:09;99399.53;;;37.44;27.50
5755;BME280;2902;42.130;24.732;2023-08-17T09:07:37;99393.31;;;37.54;26.86
5755;BME280;2902;42.130;24.732;2023-08-17T09:10:05;99399.88;;;37.69;26.31
5755;BME280;2902;42.130;24.732;2023-08-17T09:12:32;99385.88;;;37.91;26.52
5755;BME280;2902;42.130;24.732;2023-08-17T09:14:58;99386.34;;;38.00;26.30
5755;BME280;2902;42.130;24.732;2023-08-17T09:17:25;99380.16;;;38.10;26.11
5755;BME280;2902;42.130;24.732;2023-08-17T09:19:54;99362.94;;;37.94;25.98
5755;BME280;2902;42.130;24.732;2023-08-17T09:22:24;99382.88;;;38.03;26.30
5755;BME280;2902;42.130;24.732;2023-08-17T09:24:51;99384.44;;;38.04;26.42
5755;BME280;2902;42.130;24.732;2023-08-17T09:27:18;99365.88;;;37.75;26.08
5755;BME280;2902;42.130;24.732;2023-08-17T09:29:45;99392.72;;;38.01;26.14
5755;BME280;2902;42.130;24.732;2023-08-17T09:32:14;99387.69;;;38.10;25.56
5755;BME280;2902;42.130;24.732;2023-08-17T09:34:41;99378.03;;;38.00;26.05
5755;BME280;2902;42.130;24.732;2023-08-17T09:37:11;99387.53;;;37.99;26.11
5755;BME280;2902;42.130;24.732;2023-08-17T09:39:38;99385.75;;;38.14;26.39
5755;BME280;2902;42.130;24.732;2023-08-17T09:42:05;99378.34;;;38.28;25.46
5755;BME280;2902;42.130;24.732;2023-08-17T09:44:33;99373.94;;;38.24;26.00
5755;BME280;2902;42.130;24.732;2023-08-17T09:47:00;99370.69;;;37.82;26.56
5755;BME280;2902;42.130;24.732;2023-08-17T09:49:31;99380.19;;;37.77;26.80
5755;BME280;2902;42.130;24.732;2023-08-17T09:51:59;99377.84;;;37.83;25.72
5755;BME280;2902;42.130;24.732;2023-08-17T09:54:30;99366.91;;;37.97;26.09
5755;BME280;2902;42.130;24.732;2023-08-17T09:56:57;99371.41;;;38.08;25.92
5755;BME280;2902;42.130;24.732;2023-08-17T09:59:24;99358.97;;;37.95;26.15
5755;BME280;2902;42.130;24.732;2023-08-17T10:01:51;99356.69;;;38.04;25.58
5755;BME280;2902;42.130;24.732;2023-08-17T10:04:20;99350.28;;;38.00;26.18
5755;BME280;2902;42.130;24.732;2023-08-17T10:06:48;99349.78;;;37.88;25.57
5755;BME280;2902;42.130;24.732;2023-08-17T10:09:19;99346.63;;;37.89;25.93
5755;BME280;2902;42.130;24.732;2023-08-17T10:11:52;99346.44;;;37.42;27.12
5755;BME280;2902;42.130;24.732;2023-08-17T10:14:23;99349.78;;;37.25;26.46
5755;BME280;2902;42.130;24.732;2023-08-17T10:16:57;99346.38;;;37.12;27.36
5755;BME280;2902;42.130;24.732;2023-08-17T10:19:36;99331.13;;;37.22;26.81
5755;BME280;2902;42.130;24.732;2023-08-17T10:22:08;99344.44;;;37.13;26.47
5755;BME280;2902;42.130;24.732;2023-08-17T10:24:38;99334.38;;;37.01;26.89
5755;BME280;2902;42.130;24.732;2023-08-17T10:27:07;99335.34;;;36.86;27.28
5755;BME280;2902;42.130;24.732;2023-08-17T10:29:36;99327.09;;;37.16;26.66
5755;BME280;2902;42.130;24.732;2023-08-17T10:32:05;99323.91;;;36.88;26.37
5755;BME280;2902;42.130;24.732;2023-08-17T10:34:33;99327.94;;;37.20;25.99
5755;BME280;2902;42.130;24.732;2023-08-17T10:37:01;99326.56;;;37.37;25.61
5755;BME280;2902;42.130;24.732;2023-08-17T10:39:29;99329.06;;;37.49;25.38
5755;BME280;2902;42.130;24.732;2023-08-17T10:41:57;99315.66;;;37.21;26.73
5755;BME280;2902;42.130;24.732;2023-08-17T10:44:47;99324.53;;;37.04;26.74
5755;BME280;2902;42.130;24.732;2023-08-17T10:47:21;99304.69;;;36.50;27.34
5755;BME280;2902;42.130;24.732;2023-08-17T10:49:49;99313.94;;;36.35;26.51
5755;BME280;2902;42.130;24.732;2023-08-17T10:52:25;99322.84;;;36.47;26.27
5755;BME280;2902;42.130;24.732;2023-08-17T10:54:53;99301.66;;;36.58;26.36
5755;BME280;2902;42.130;24.732;2023-08-17T10:57:32;99304.94;;;36.67;26.65
5755;BME280;2902;42.130;24.732;2023-08-17T11:00:07;99309.94;;;36.32;26.97
5755;BME280;2902;42.130;24.732;2023-08-17T11:02:36;99312.72;;;35.91;26.79
5755;BME280;2902;42.130;24.732;2023-08-17T11:05:04;99300.88;;;35.71;27.38
5755;BME280;2902;42.130;24.732;2023-08-17T11:07:38;99300.50;;;35.92;27.35
5755;BME280;2902;42.130;24.732;2023-08-17T11:10:11;99287.94;;;36.17;26.54
5755;BME280;2902;42.130;24.732;2023-08-17T11:12:38;99287.13;;;36.39;26.39
5755;BME280;2902;42.130;24.732;2023-08-17T11:15:09;99278.81;;;36.65;26.53
5755;BME280;2902;42.130;24.732;2023-08-17T11:17:35;99303.72;;;36.39;26.74
5755;BME280;2902;42.130;24.732;2023-08-17T11:20:03;99287.16;;;36.20;26.31
5755;BME280;2902;42.130;24.732;2023-08-17T11:22:30;99285.41;;;36.31;26.51
5755;BME280;2902;42.130;24.732;2023-08-17T11:24:58;99271.38;;;36.43;26.22
5755;BME280;2902;42.130;24.732;2023-08-17T11:27:25;99273.97;;;36.58;26.83
5755;BME280;2902;42.130;24.732;2023-08-17T11:29:52;99276.47;;;36.41;27.15
5755;BME280;2902;42.130;24.732;2023-08-17T11:32:20;99265.25;;;36.56;26.50
5755;BME280;2902;42.130;24.732;2023-08-17T11:34:47;99257.53;;;36.69;25.82
5755;BME280;2902;42.130;24.732;2023-08-17T11:37:13;99276.03;;;36.65;26.37
5755;BME280;2902;42.130;24.732;2023-08-17T11:39:40;99267.53;;;36.51;25.24
5755;BME280;2902;42.130;24.732;2023-08-17T11:42:07;99258.72;;;36.42;26.09
5755;BME280;2902;42.130;24.732;2023-08-17T11:44:33;99263.88;;;36.21;26.15
5755;BME280;2902;42.130;24.732;2023-08-17T11:47:01;99252.66;;;35.88;27.28
5755;BME280;2902;42.130;24.732;2023-08-17T11:49:31;99247.16;;;36.14;26.97
5755;BME280;2902;42.130;24.732;2023-08-17T11:51:58;99249.31;;;36.24;26.35
5755;BME280;2902;42.130;24.732;2023-08-17T11:54:25;99249.56;;;36.15;25.97
5755;BME280;2902;42.130;24.732;2023-08-17T11:56:52;99246.72;;;36.12;26.34
5755;BME280;2902;42.130;24.732;2023-08-17T11:59:19;99234.50;;;36.13;25.48
5755;BME280;2902;42.130;24.732;2023-08-17T12:01:46;99237.56;;;36.08;25.75
5755;BME280;2902;42.130;24.732;2023-08-17T12:04:15;99238.69;;;36.26;25.17
5755;BME280;2902;42.130;24.732;2023-08-17T12:06:44;99230.44;;;36.07;25.06
5755;BME280;2902;42.130;24.732;2023-08-17T12:09:11;99220.09;;;36.26;25.57
5755;BME280;2902;42.130;24.732;2023-08-17T12:11:39;99229.31;;;36.34;25.52
5755;BME280;2902;42.130;24.732;2023-08-17T12:14:10;99219.19;;;36.45;24.29
5755;BME280;2902;42.130;24.732;2023-08-17T12:16:45;99210.88;;;36.45;23.93
5755;BME280;2902;42.130;24.732;2023-08-17T12:19:13;99209.94;;;36.60;23.94
5755;BME280;2902;42.130;24.732;2023-08-17T12:21:40;99203.28;;;36.64;23.94
5755;BME280;2902;42.130;24.732;2023-08-17T12:24:09;99204.06;;;36.65;24.43
5755;BME280;2902;42.130;24.732;2023-08-17T12:26:40;99194.72;;;36.47;24.00
5755;BME280;2902;42.130;24.732;2023-08-17T12:29:07;99196.59;;;36.39;23.82
5755;BME280;2902;42.130;24.732;2023-08-17T12:31:34;99198.34;;;36.51;22.80
5755;BME280;2902;42.130;24.732;2023-08-17T12:34:01;99197.16;;;36.52;23.11
5755;BME280;2902;42.130;24.732;2023-08-17T12:36:28;99195.09;;;36.45;23.26
5755;BME280;2902;42.130;24.732;2023-08-17T12:38:55;99182.75;;;36.39;24.11
5755;BME280;2902;42.130;24.732;2023-08-17T12:41:23;99179.41;;;36.27;23.92
5755;BME280;2902;42.130;24.732;2023-08-17T12:43:50;99171.94;;;36.31;24.19
5755;BME280;2902;42.130;24.732;2023-08-17T12:46:19;99180.72;;;36.36;23.44
5755;BME280;2902;42.130;24.732;2023-08-17T12:48:46;99189.19;;;36.47;23.85
5755;BME280;2902;42.130;24.732;2023-08-17T12:51:12;99188.53;;;36.57;24.19
5755;BME280;2902;42.130;24.732;2023-08-17T12:53:40;99194.81;;;36.54;23.66
5755;BME280;2902;42.130;24.732;2023-08-17T12:56:07;99200.72;;;36.52;23.25
5755;BME280;2902;42.130;24.732;2023-08-17T12:58:35;99193.53;;;36.48;23.32
5755;BME280;2902;42.130;24.732;2023-08-17T13:01:02;99185.69;;;36.50;23.67
5755;BME280;2902;42.130;24.732;2023-08-17T13:03:28;99189.50;;;36.42;23.27
5755;BME280;2902;42.130;24.732;2023-08-17T13:05:55;99178.41;;;36.16;23.87
5755;BME280;2902;42.130;24.732;2023-08-17T13:08:22;99200.81;;;36.30;23.92
5755;BME280;2902;42.130;24.732;2023-08-17T13:10:49;99187.44;;;36.35;23.48
5755;BME280;2902;42.130;24.732;2023-08-17T13:13:16;99184.34;;;36.40;24.07